Flight Track Log - Related Links

Times and Time Zones

All times are in EDT time to prevent confusion due to time zone crossing. See the N36GV flight status page for this flight to view local times or setup timezone preferences in your user account.

Time Position Orientation Groundspeed Altitude Reporting Facility
EDT Latitude Longitude Course Direction KTS MPH feet Rate Location/Type
Mon 05:40:00 AM 21.2167 -157.7833 306° West 190 219 2,600  Level Honolulu Center
Mon 05:41:00 AM 21.2500 -157.8333 306° West 130 150 1,700 -750 Descending Honolulu Center
Mon 05:42:00 AM 21.2667 -157.8500 317° Northwest 120 138 1,100 -9 Descending Honolulu Center
Mon 05:43:00 AM 21.3461 -157.7393 105° East  Level Estimated
Mon 05:50:00 AM 21.9002 -156.9612 62° Northeast  Level Estimated
Mon 05:51:00 AM 21.9791 -156.8496 118° Southeast  Level Estimated
Mon 05:52:00 AM 22.0579 -156.7378 90° East  Level Estimated
Mon 05:53:00 AM 22.1366 -156.6259 90° East  Level Estimated
Mon 05:54:00 AM 22.2152 -156.5139 90° East  Level Estimated
Mon 05:55:00 AM 22.2938 -156.4017 90° East  Level Estimated
Mon 05:56:00 AM 22.1771 -156.3394 154° Southeast  Level FlightAware Approximate
Mon 05:57:00 AM 22.2556 -156.2272 96° East  Level Estimated
Mon 05:58:00 AM 22.3340 -156.1150 90° East  Level Estimated
Mon 05:59:00 AM 22.2269 -156.0351 145° Southeast  Level FlightAware Approximate
Mon 06:00:00 AM 22.1197 -155.9553 145° Southeast  Level FlightAware Approximate
Mon 06:01:00 AM 22.1982 -155.8431 93° East  Level Estimated
Mon 06:02:00 AM 22.0995 -155.7515 139° Southeast  Level FlightAware Approximate
Mon 06:03:00 AM 22.1779 -155.6393 90° East  Level Estimated
Mon 06:04:00 AM 22.0833 -155.5427 137° Southeast  Level FlightAware Approximate
Mon 06:05:00 AM 22.1616 -155.4305 77° East  Level Estimated
Mon 06:06:00 AM 22.1235 -155.2961 107° East  Level FlightAware Approximate
Mon 06:07:00 AM 22.0853 -155.1618 107° East  Level FlightAware Approximate
Mon 06:08:00 AM 22.0469 -155.0276 107° East  Level FlightAware Approximate
Mon 06:09:00 AM 22.0085 -154.8934 107° East  Level FlightAware Approximate
Mon 06:10:00 AM 21.9699 -154.7593 107° East  Level FlightAware Approximate
Mon 06:11:00 AM 21.9312 -154.6253 107° East  Level FlightAware Approximate
Mon 06:12:00 AM 21.8925 -154.4914 107° East  Level FlightAware Approximate
Mon 06:13:00 AM 21.8536 -154.3575 107° East  Level FlightAware Approximate
Mon 06:14:00 AM 21.8146 -154.2237 107° East  Level FlightAware Approximate
Mon 06:15:00 AM 21.8927 -154.1115 60° Northeast  Level Estimated
Mon 06:16:00 AM 21.8660 -153.9742 102° East  Level FlightAware Approximate
Mon 06:17:00 AM 21.9440 -153.8619 61° Northeast  Level Estimated
Mon 06:18:00 AM 21.9711 -153.7246 78° East  Level FlightAware Approximate
Mon 06:19:00 AM 21.9981 -153.5873 78° East  Level FlightAware Approximate
Mon 06:20:00 AM 22.0250 -153.4499 78° East  Level FlightAware Approximate
Mon 06:21:00 AM 22.0518 -153.3125 78° East  Level FlightAware Approximate
Mon 06:22:00 AM 22.0784 -153.1750 78° East  Level FlightAware Approximate
Mon 06:23:00 AM 22.1050 -153.0375 78° East  Level FlightAware Approximate
Mon 06:24:00 AM 22.1314 -152.8999 78° East  Level FlightAware Approximate
Mon 06:25:00 AM 22.1577 -152.7623 78° East  Level FlightAware Approximate
Mon 06:26:00 AM 22.1839 -152.6246 78° East  Level FlightAware Approximate
Mon 06:27:00 AM 22.2614 -152.5116 62° Northeast  Level Estimated
Mon 06:28:00 AM 22.3048 -152.3789 70° East  Level FlightAware Approximate
Mon 06:29:00 AM 22.3481 -152.2462 71° East  Level FlightAware Approximate
Mon 06:30:00 AM 22.3913 -152.1134 71° East  Level FlightAware Approximate
Mon 06:31:00 AM 22.4344 -151.9806 71° East  Level FlightAware Approximate
Mon 06:32:00 AM 22.4774 -151.8476 71° East  Level FlightAware Approximate
Mon 06:33:00 AM 22.5203 -151.7146 71° East  Level FlightAware Approximate
Mon 06:34:00 AM 22.5973 -151.6009 62° Northeast  Level Estimated
Mon 06:35:00 AM 22.6518 -151.4729 65° Northeast  Level FlightAware Approximate
Mon 06:36:00 AM 22.7062 -151.3447 65° Northeast  Level FlightAware Approximate
Mon 06:37:00 AM 22.7605 -151.2165 65° Northeast  Level FlightAware Approximate
Mon 06:38:00 AM 22.8148 -151.0881 65° Northeast  Level FlightAware Approximate
Mon 06:39:00 AM 22.8689 -150.9596 65° Northeast  Level FlightAware Approximate
Mon 06:40:00 AM 22.9229 -150.8311 65° Northeast  Level FlightAware Approximate
Mon 06:41:00 AM 22.9768 -150.7024 66° East  Level FlightAware Approximate
Mon 06:42:00 AM 23.0306 -150.5736 66° East  Level FlightAware Approximate
Mon 06:43:00 AM 23.0843 -150.4448 66° East  Level FlightAware Approximate
Mon 06:44:00 AM 23.1379 -150.3158 66° East  Level FlightAware Approximate
Mon 06:45:00 AM 23.1914 -150.1867 66° East  Level FlightAware Approximate
Mon 06:46:00 AM 23.2675 -150.0718 63° Northeast  Level Estimated
Mon 06:47:00 AM 23.3243 -149.9443 64° Northeast  Level FlightAware Approximate
Mon 06:48:00 AM 23.3810 -149.8166 64° Northeast  Level FlightAware Approximate
Mon 06:49:00 AM 23.4376 -149.6889 64° Northeast  Level FlightAware Approximate
Mon 06:50:00 AM 23.4941 -149.5611 64° Northeast  Level FlightAware Approximate
Mon 06:51:00 AM 23.5505 -149.4331 64° Northeast  Level FlightAware Approximate
Mon 06:52:00 AM 23.6068 -149.3050 64° Northeast  Level FlightAware Approximate
Mon 06:53:00 AM 23.6629 -149.1769 64° Northeast  Level FlightAware Approximate
Mon 06:54:00 AM 23.7190 -149.0486 64° Northeast  Level FlightAware Approximate
Mon 06:54:48 AM 21.3000 -157.9000 64° Northeast 210 242 1,000  Level Honolulu Center
Mon 06:55:00 AM 23.7750 -148.9202 65° Northeast  Level FlightAware Approximate
Mon 06:55:48 AM 21.2333 -157.8500 145° Southeast 250 288 3,400  Level Honolulu Center
Mon 06:56:00 AM 23.8308 -148.7917 65° Northeast  Level FlightAware Approximate
Mon 06:56:48 AM 21.2000 -157.7833 118° Southeast 290 334 6,500  Level Honolulu Center
Mon 06:57:00 AM 23.8866 -148.6631 65° Northeast  Level FlightAware Approximate
Mon 06:57:49 AM 21.2000 -157.7000 90° East 300 345 9,600  Level Honolulu Center
Mon 06:58:00 AM 23.9422 -148.5343 65° Northeast  Level FlightAware Approximate
Mon 06:58:49 AM 21.2167 -157.6000 80° East 340 391 11,100  Level Honolulu Center
Mon 06:59:00 AM 24.0174 -148.4180 64° Northeast  Level Estimated
Mon 06:59:49 AM 21.2333 -157.5000 80° East 370 426 13,300  Level Honolulu Center
Mon 07:00:00 AM 24.0740 -148.2897 64° Northeast  Level FlightAware Approximate
Mon 07:00:49 AM 21.2500 -157.3833 81° East 390 449 15,300  Level Honolulu Center
Mon 07:01:49 AM 21.2500 -157.2667 90° East 410 472 17,600 1,900 Climbing Honolulu Center
Mon 07:02:49 AM 21.2667 -157.1333 82° East 420 483 19,100 1,750 Climbing Honolulu Center
Mon 07:03:49 AM 21.3000 -157.0167 73° East 430 495 21,100 1,900 Climbing Honolulu Center
Mon 07:04:49 AM 21.3333 -156.8833 75° East 440 506 22,900 1,785 Climbing Honolulu Center
Mon 07:05:50 AM 21.3500 -156.7667 81° East 450 518 24,700 1,686 Climbing Honolulu Center
Mon 07:06:50 AM 21.3833 -156.6167 77° East 460 529 26,300 1,550 Climbing Honolulu Center
Mon 07:07:50 AM 21.4167 -156.4833 75° East 470 541 27,800 1,550 Climbing Honolulu Center
Mon 07:08:50 AM 21.4500 -156.3333 77° East 480 552 29,400 1,400 Climbing Honolulu Center
Mon 07:09:50 AM 21.4833 -156.2000 75° East 490 564 30,600 1,400 Climbing Honolulu Center
Mon 07:10:50 AM 21.5000 -156.0667 82° East 490 564 32,200 1,650 Climbing Honolulu Center
Mon 07:11:50 AM 21.5333 -155.9167 77° East 490 564 33,900 1,550 Climbing Honolulu Center
Mon 07:12:50 AM 21.5667 -155.7667 77° East 490 564 35,300 1,400 Climbing Honolulu Center
Mon 07:13:50 AM 21.6000 -155.6333 75° East 480 552 36,700 1,400 Climbing Honolulu Center
Mon 07:14:50 AM 21.6333 -155.4833 77° East 480 552 38,100 1,150 Climbing Honolulu Center
Mon 07:15:50 AM 21.6500 -155.3500 82° East 480 552 39,000 446 Climbing Honolulu Center
Mon 07:16:51 AM 21.6833 -155.2000 77° East 490 564 39,000  Level Honolulu Center
Mon 07:17:51 AM 21.7167 -155.0500 77° East 500 575 39,000  Level Honolulu Center
Mon 07:18:51 AM 21.7500 -154.9167 75° East 510 587 39,000  Level Honolulu Center
Mon 07:19:51 AM 21.7833 -154.7667 77° East 500 575 39,000  Level Honolulu Center
Mon 07:20:51 AM 21.8000 -154.6167 83° East 510 587 39,000  Level Honolulu Center
Mon 07:21:51 AM 21.8333 -154.5000 73° East 500 575 39,000  Level Honolulu Center
Mon 07:22:51 AM 21.8667 -154.3500 77° East 510 587 39,000  Level Honolulu Center
Mon 07:23:51 AM 21.8833 -154.2000 83° East 500 575 39,000  Level Honolulu Center
Mon 07:24:52 AM 21.9167 -154.0500 77° East 510 587 39,000  Level Honolulu Center
Mon 07:25:52 AM 21.9500 -153.9000 76° East 510 587 39,000  Level Honolulu Center
Mon 07:26:52 AM 21.9833 -153.7500 76° East 510 587 39,000  Level Honolulu Center
Mon 07:27:52 AM 22.0167 -153.6000 76° East 510 587 39,000  Level Honolulu Center
Mon 07:28:52 AM 22.0500 -153.4333 78° East 510 587 39,000  Level Honolulu Center
Mon 07:30:00 AM 22.0802 -153.2657 79° East  Level FlightAware Approximate
Mon 07:37:00 AM 22.2630 -152.2288 79° East  Level FlightAware Approximate
Mon 07:38:00 AM 22.2886 -152.0805 79° East  Level FlightAware Approximate
Mon 07:39:00 AM 22.3140 -151.9321 79° East  Level FlightAware Approximate
Mon 07:39:38 AM 22.3500 -151.8833 62° Northeast 500 575 39,000  Level Oakland Oceanic (ODAPS)
Mon 07:40:00 AM 22.3758 -151.7972 62° Northeast  Level FlightAware Approximate
Mon 07:41:00 AM 22.4414 -151.6638 62° Northeast  Level FlightAware Approximate
Mon 07:42:00 AM 22.5068 -151.5303 62° Northeast  Level FlightAware Approximate
Mon 07:43:00 AM 22.5722 -151.3967 62° Northeast  Level FlightAware Approximate
Mon 07:44:00 AM 22.6374 -151.2630 62° Northeast  Level FlightAware Approximate
Mon 07:45:00 AM 22.8031 -150.9532 62° Northeast 500 575 39,000  Level FlightAware Transoceanic
Mon 07:46:00 AM 22.8674 -150.8198 62° Northeast 500 575 39,000  Level FlightAware Transoceanic
Mon 07:47:00 AM 22.9316 -150.6863 62° Northeast 500 575 39,000  Level FlightAware Transoceanic
Mon 07:48:00 AM 22.9956 -150.5526 63° Northeast 500 575 39,000  Level FlightAware Transoceanic
Mon 07:49:00 AM 23.0596 -150.4189 63° Northeast 500 575 39,000  Level FlightAware Transoceanic
Mon 07:50:00 AM 23.1234 -150.2850 63° Northeast 500 575 39,000  Level FlightAware Transoceanic
Mon 07:51:00 AM 23.1872 -150.1510 63° Northeast 500 575 39,000  Level FlightAware Transoceanic
Mon 07:52:00 AM 23.2508 -150.0168 63° Northeast 500 575 39,000  Level FlightAware Transoceanic
Mon 07:53:00 AM 23.3143 -149.8825 63° Northeast 500 575 39,000  Level FlightAware Transoceanic
Mon 07:54:00 AM 23.3777 -149.7481 63° Northeast 500 575 39,000  Level FlightAware Transoceanic
Mon 07:55:00 AM 23.4409 -149.6136 63° Northeast 500 575 39,000  Level FlightAware Transoceanic
Mon 07:56:00 AM 23.5041 -149.4789 63° Northeast 500 575 39,000  Level FlightAware Transoceanic
Mon 07:57:00 AM 23.5671 -149.3442 63° Northeast 500 575 39,000  Level FlightAware Transoceanic
Mon 07:58:00 AM 23.6301 -149.2092 63° Northeast 500 575 39,000  Level FlightAware Transoceanic
Mon 07:59:00 AM 23.6929 -149.0742 63° Northeast 500 575 39,000  Level FlightAware Transoceanic
Mon 08:00:00 AM 23.7556 -148.9390 63° Northeast 500 575 39,000  Level FlightAware Transoceanic
Mon 08:01:00 AM 23.8181 -148.8037 63° Northeast 500 575 39,000  Level FlightAware Transoceanic
Mon 08:02:00 AM 23.8806 -148.6683 63° Northeast 500 575 39,000  Level FlightAware Transoceanic
Mon 08:03:00 AM 23.9429 -148.5327 63° Northeast 500 575 39,000  Level FlightAware Transoceanic
Mon 08:04:00 AM 24.0051 -148.3970 63° Northeast 500 575 39,000  Level FlightAware Transoceanic
Mon 08:05:00 AM 24.0672 -148.2612 63° Northeast 500 575 39,000  Level FlightAware Transoceanic
Mon 08:06:00 AM 24.1292 -148.1252 63° Northeast 500 575 39,000  Level FlightAware Transoceanic
Mon 08:07:00 AM 24.1911 -147.9891 64° Northeast 500 575 39,000  Level FlightAware Transoceanic
Mon 08:08:00 AM 24.2528 -147.8529 64° Northeast 500 575 39,000  Level FlightAware Transoceanic
Mon 08:09:00 AM 24.3144 -147.7166 64° Northeast 500 575 39,000  Level FlightAware Transoceanic
Mon 08:10:00 AM 24.3759 -147.5801 64° Northeast 500 575 39,000  Level FlightAware Transoceanic
Mon 08:11:00 AM 24.4373 -147.4434 64° Northeast 500 575 39,000  Level FlightAware Transoceanic
Mon 08:12:00 AM 24.4985 -147.3067 64° Northeast 500 575 39,000  Level FlightAware Transoceanic
Mon 08:13:00 AM 24.5596 -147.1698 64° Northeast 500 575 39,000  Level FlightAware Transoceanic
Mon 08:14:00 AM 24.6206 -147.0328 64° Northeast 500 575 39,000  Level FlightAware Transoceanic
Mon 08:15:00 AM 24.6815 -146.8956 64° Northeast 500 575 39,000  Level FlightAware Transoceanic
Mon 08:16:00 AM 24.7423 -146.7583 64° Northeast 500 575 39,000  Level FlightAware Transoceanic
Mon 08:17:00 AM 24.8029 -146.6209 64° Northeast 500 575 39,000  Level FlightAware Transoceanic
Mon 08:18:00 AM 24.8634 -146.4834 64° Northeast 500 575 39,000  Level FlightAware Transoceanic
Mon 08:19:00 AM 24.9238 -146.3457 64° Northeast 500 575 39,000  Level FlightAware Transoceanic
Mon 08:20:00 AM 24.9840 -146.2078 64° Northeast 500 575 39,000  Level FlightAware Transoceanic
Mon 08:21:00 AM 25.0441 -146.0699 64° Northeast 500 575 39,000  Level FlightAware Transoceanic
Mon 08:22:00 AM 25.1041 -145.9318 64° Northeast 500 575 39,000  Level FlightAware Transoceanic
Mon 08:23:00 AM 25.1640 -145.7935 64° Northeast 500 575 39,000  Level FlightAware Transoceanic
Mon 08:24:00 AM 25.2237 -145.6552 65° Northeast 500 575 39,000  Level FlightAware Transoceanic
Mon 08:24:18 AM 25.2833 -145.5167 65° Northeast 532 612 39,000  Level Oakland Oceanic (ODAPS)
Mon 08:25:00 AM 25.2833 -145.5167 65° Northeast 500 575 39,000  Level FlightAware Transoceanic
Mon 08:26:00 AM 25.3465 -145.3685 65° Northeast 500 575 39,000  Level FlightAware Transoceanic
Mon 08:27:00 AM 25.4096 -145.2202 65° Northeast 500 575 39,000  Level FlightAware Transoceanic
Mon 08:28:00 AM 25.4725 -145.0718 65° Northeast 500 575 39,000  Level FlightAware Transoceanic
Mon 08:29:00 AM 25.5353 -144.9232 65° Northeast 500 575 39,000  Level FlightAware Transoceanic
Mon 08:30:00 AM 25.7227 -144.4765 65° Northeast 532 612 39,000  Level FlightAware Transoceanic
Mon 08:31:00 AM 25.7848 -144.3273 65° Northeast 532 612 39,000  Level FlightAware Transoceanic
Mon 08:32:00 AM 25.8469 -144.1779 65° Northeast 532 612 39,000  Level FlightAware Transoceanic
Mon 08:33:00 AM 25.9087 -144.0284 65° Northeast 532 612 39,000  Level FlightAware Transoceanic
Mon 08:34:00 AM 25.9704 -143.8787 65° Northeast 532 612 39,000  Level FlightAware Transoceanic
Mon 08:35:00 AM 26.0320 -143.7289 65° Northeast 532 612 39,000  Level FlightAware Transoceanic
Mon 08:36:00 AM 26.0934 -143.5789 66° East 532 612 39,000  Level FlightAware Transoceanic
Mon 08:37:00 AM 26.1546 -143.4287 66° East 532 612 39,000  Level FlightAware Transoceanic
Mon 08:38:00 AM 26.2157 -143.2784 66° East 532 612 39,000  Level FlightAware Transoceanic
Mon 08:39:00 AM 26.2766 -143.1279 66° East 532 612 39,000  Level FlightAware Transoceanic
Mon 08:40:00 AM 26.3374 -142.9773 66° East 532 612 39,000  Level FlightAware Transoceanic
Mon 08:41:00 AM 26.3980 -142.8265 66° East 532 612 39,000  Level FlightAware Transoceanic
Mon 08:42:00 AM 26.4585 -142.6755 66° East 532 612 39,000  Level FlightAware Transoceanic
Mon 08:43:00 AM 26.5187 -142.5244 66° East 532 612 39,000  Level FlightAware Transoceanic
Mon 08:44:00 AM 26.5789 -142.3732 66° East 532 612 39,000  Level FlightAware Transoceanic
Mon 08:45:00 AM 26.6389 -142.2217 66° East 532 612 39,000  Level FlightAware Transoceanic
Mon 08:46:00 AM 26.6987 -142.0702 66° East 532 612 39,000  Level FlightAware Transoceanic
Mon 08:47:00 AM 26.7583 -141.9184 66° East 532 612 39,000  Level FlightAware Transoceanic
Mon 08:48:00 AM 26.8178 -141.7665 66° East 532 612 39,000  Level FlightAware Transoceanic
Mon 08:49:00 AM 26.8771 -141.6145 66° East 532 612 39,000  Level FlightAware Transoceanic
Mon 08:50:00 AM 26.9363 -141.4622 66° East 532 612 39,000  Level FlightAware Transoceanic
Mon 08:51:00 AM 26.9953 -141.3099 67° East 532 612 39,000  Level FlightAware Transoceanic
Mon 08:52:00 AM 27.0542 -141.1573 67° East 532 612 39,000  Level FlightAware Transoceanic
Mon 08:53:00 AM 27.1128 -141.0046 67° East 532 612 39,000  Level FlightAware Transoceanic
Mon 08:54:00 AM 27.1714 -140.8518 67° East 532 612 39,000  Level FlightAware Transoceanic
Mon 08:55:00 AM 27.2297 -140.6987 67° East 532 612 39,000  Level FlightAware Transoceanic
Mon 08:56:00 AM 27.2879 -140.5456 67° East 532 612 39,000  Level FlightAware Transoceanic
Mon 08:57:00 AM 27.3459 -140.3922 67° East 532 612 39,000  Level FlightAware Transoceanic
Mon 08:58:00 AM 27.4037 -140.2387 67° East 532 612 39,000  Level FlightAware Transoceanic
Mon 08:59:00 AM 27.4614 -140.0851 67° East 532 612 39,000  Level FlightAware Transoceanic
Mon 09:00:00 AM 27.5189 -139.9312 67° East 532 612 39,000  Level FlightAware Transoceanic
Mon 09:01:00 AM 27.5762 -139.7773 67° East 532 612 39,000  Level FlightAware Transoceanic
Mon 09:02:00 AM 27.6334 -139.6231 67° East 532 612 39,000  Level FlightAware Transoceanic
Mon 09:03:00 AM 27.6904 -139.4688 67° East 532 612 39,000  Level FlightAware Transoceanic
Mon 09:04:00 AM 27.7472 -139.3144 67° East 532 612 39,000  Level FlightAware Transoceanic
Mon 09:05:00 AM 27.8039 -139.1597 68° East 532 612 39,000  Level FlightAware Transoceanic
Mon 09:06:00 AM 27.8604 -139.0049 68° East 532 612 39,000  Level FlightAware Transoceanic
Mon 09:07:00 AM 27.9167 -138.8500 68° East 532 612 39,000 1,600 Level FlightAware Transoceanic
Mon 09:07:15 AM 27.9167 -138.8500 68° East 539 620 41,000  Climbing Oakland Oceanic (ODAPS)
Mon 09:08:00 AM 27.9734 -138.6933 68° East 532 612 39,000 -1,143 Descending FlightAware Transoceanic
Mon 09:09:00 AM 28.0299 -138.5363 68° East 532 612 39,000  Level FlightAware Transoceanic
Mon 09:10:00 AM 28.0862 -138.3793 68° East 532 612 39,000  Level FlightAware Transoceanic
Mon 09:11:00 AM 28.1424 -138.2220 68° East 532 612 39,000  Level FlightAware Transoceanic
Mon 09:12:00 AM 28.1984 -138.0646 68° East 532 612 39,000 1,000 Level FlightAware Transoceanic
Mon 09:13:00 AM 28.3098 -137.7493 68° East 539 620 41,000 1,000 Climbing FlightAware Transoceanic
Mon 09:14:00 AM 28.3652 -137.5914 68° East 539 620 41,000  Level FlightAware Transoceanic
Mon 09:15:00 AM 28.4205 -137.4333 68° East 539 620 41,000  Level FlightAware Transoceanic
Mon 09:16:00 AM 28.4756 -137.2751 68° East 539 620 41,000  Level FlightAware Transoceanic
Mon 09:17:00 AM 28.5305 -137.1167 69° East 539 620 41,000  Level FlightAware Transoceanic
Mon 09:18:00 AM 28.5852 -136.9581 69° East 539 620 41,000  Level FlightAware Transoceanic
Mon 09:19:00 AM 28.6397 -136.7994 69° East 539 620 41,000  Level FlightAware Transoceanic
Mon 09:20:00 AM 28.6940 -136.6405 69° East 539 620 41,000  Level FlightAware Transoceanic
Mon 09:21:00 AM 28.7482 -136.4814 69° East 539 620 41,000  Level FlightAware Transoceanic
Mon 09:22:00 AM 28.8021 -136.3222 69° East 539 620 41,000  Level FlightAware Transoceanic
Mon 09:23:00 AM 28.8559 -136.1628 69° East 539 620 41,000  Level FlightAware Transoceanic
Mon 09:24:00 AM 28.9095 -136.0032 69° East 539 620 41,000  Level FlightAware Transoceanic
Mon 09:25:00 AM 28.9629 -135.8435 69° East 539 620 41,000  Level FlightAware Transoceanic
Mon 09:26:00 AM 29.0161 -135.6836 69° East 539 620 41,000  Level FlightAware Transoceanic
Mon 09:27:00 AM 29.0692 -135.5236 69° East 539 620 41,000  Level FlightAware Transoceanic
Mon 09:28:00 AM 29.1220 -135.3634 69° East 539 620 41,000  Level FlightAware Transoceanic
Mon 09:29:00 AM 29.1746 -135.2030 69° East 539 620 41,000  Level FlightAware Transoceanic
Mon 09:30:00 AM 29.2271 -135.0425 70° East 539 620 41,000  Level FlightAware Transoceanic
Mon 09:31:00 AM 29.2794 -134.8817 70° East 539 620 41,000  Level FlightAware Transoceanic
Mon 09:32:00 AM 29.3314 -134.7209 70° East 539 620 41,000  Level FlightAware Transoceanic
Mon 09:33:00 AM 29.3833 -134.5598 70° East 539 620 41,000  Level FlightAware Transoceanic
Mon 09:34:00 AM 29.4350 -134.3987 70° East 539 620 41,000  Level FlightAware Transoceanic
Mon 09:35:00 AM 29.4865 -134.2373 70° East 539 620 41,000  Level FlightAware Transoceanic
Mon 09:36:00 AM 29.5378 -134.0758 70° East 539 620 41,000  Level FlightAware Transoceanic
Mon 09:37:00 AM 29.5889 -133.9141 70° East 539 620 41,000  Level FlightAware Transoceanic
Mon 09:38:00 AM 29.6397 -133.7522 70° East 539 620 41,000  Level FlightAware Transoceanic
Mon 09:39:00 AM 29.6905 -133.5902 70° East 539 620 41,000  Level FlightAware Transoceanic
Mon 09:40:00 AM 29.7410 -133.4280 70° East 539 620 41,000  Level FlightAware Transoceanic
Mon 09:41:00 AM 29.7913 -133.2657 70° East 539 620 41,000  Level FlightAware Transoceanic
Mon 09:42:00 AM 29.8414 -133.1032 70° East 539 620 41,000  Level FlightAware Transoceanic
Mon 09:43:00 AM 29.8913 -132.9405 71° East 539 620 41,000  Level FlightAware Transoceanic
Mon 09:44:00 AM 29.9410 -132.7777 71° East 539 620 41,000  Level FlightAware Transoceanic
Mon 09:45:00 AM 29.9905 -132.6147 71° East 539 620 41,000  Level FlightAware Transoceanic
Mon 09:46:00 AM 30.0398 -132.4515 71° East 539 620 41,000  Level FlightAware Transoceanic
Mon 09:47:00 AM 30.0889 -132.2882 71° East 539 620 41,000  Level FlightAware Transoceanic
Mon 09:48:00 AM 30.1378 -132.1247 71° East 539 620 41,000  Level FlightAware Transoceanic
Mon 09:49:00 AM 30.1865 -131.9611 71° East 539 620 41,000  Level FlightAware Transoceanic
Mon 09:50:00 AM 30.2350 -131.7973 71° East 539 620 41,000  Level FlightAware Transoceanic
Mon 09:51:00 AM 30.2833 -131.6333 71° East 539 620 41,000  Level FlightAware Transoceanic
Mon 09:52:00 AM 30.3317 -131.4694 71° East 539 620 41,000  Level FlightAware Transoceanic
Mon 09:52:06 AM 30.2833 -131.6333 71° East 539 620 41,000  Level Oakland Oceanic (ODAPS)
Mon 09:53:00 AM 30.3799 -131.3053 71° East 539 620 41,000  Level FlightAware Transoceanic
Mon 09:54:00 AM 30.4279 -131.1410 71° East 539 620 41,000  Level FlightAware Transoceanic
Mon 09:55:00 AM 30.4757 -130.9766 71° East 539 620 41,000  Level FlightAware Transoceanic
Mon 09:56:00 AM 30.5232 -130.8120 71° East 539 620 41,000  Level FlightAware Transoceanic
Mon 09:57:00 AM 30.5706 -130.6473 72° East 539 620 41,000  Level FlightAware Transoceanic
Mon 09:58:00 AM 30.6178 -130.4824 72° East 539 620 41,000  Level FlightAware Transoceanic
Mon 09:59:00 AM 30.6647 -130.3173 72° East 539 620 41,000  Level FlightAware Transoceanic
Mon 10:00:00 AM 30.7114 -130.1521 72° East 539 620 41,000  Level FlightAware Transoceanic
Mon 10:01:00 AM 30.7580 -129.9867 72° East 539 620 41,000  Level FlightAware Transoceanic
Mon 10:02:00 AM 30.8043 -129.8211 72° East 539 620 41,000  Level FlightAware Transoceanic
Mon 10:03:00 AM 30.8504 -129.6554 72° East 539 620 41,000  Level FlightAware Transoceanic
Mon 10:04:00 AM 30.8963 -129.4896 72° East 539 620 41,000  Level FlightAware Transoceanic
Mon 10:05:00 AM 30.9420 -129.3235 72° East 539 620 41,000  Level FlightAware Transoceanic
Mon 10:06:00 AM 30.9874 -129.1574 72° East 539 620 41,000  Level FlightAware Transoceanic
Mon 10:07:00 AM 31.0327 -128.9910 72° East 539 620 41,000  Level FlightAware Transoceanic
Mon 10:08:00 AM 31.0777 -128.8245 73° East 539 620 41,000  Level FlightAware Transoceanic
Mon 10:09:00 AM 31.1226 -128.6579 73° East 539 620 41,000  Level FlightAware Transoceanic
Mon 10:10:00 AM 31.1672 -128.4911 73° East 539 620 41,000  Level FlightAware Transoceanic
Mon 10:11:00 AM 31.2116 -128.3241 73° East 539 620 41,000  Level FlightAware Transoceanic
Mon 10:12:00 AM 31.2558 -128.1570 73° East 539 620 41,000  Level FlightAware Transoceanic
Mon 10:13:00 AM 31.2997 -127.9897 73° East 539 620 41,000  Level FlightAware Transoceanic
Mon 10:14:00 AM 31.3435 -127.8222 73° East 539 620 41,000  Level FlightAware Transoceanic
Mon 10:15:00 AM 31.3870 -127.6546 73° East 539 620 41,000  Level FlightAware Transoceanic
Mon 10:16:00 AM 31.4304 -127.4869 73° East 539 620 41,000  Level FlightAware Transoceanic
Mon 10:17:00 AM 31.4734 -127.3190 73° East 539 620 41,000  Level FlightAware Transoceanic
Mon 10:18:00 AM 31.5163 -127.1509 73° East 539 620 41,000  Level FlightAware Transoceanic
Mon 10:19:00 AM 31.5590 -126.9827 73° East 539 620 41,000  Level FlightAware Transoceanic
Mon 10:20:00 AM 31.6014 -126.8144 74° East 539 620 41,000  Level FlightAware Transoceanic
Mon 10:21:00 AM 31.6437 -126.6459 74° East 539 620 41,000  Level FlightAware Transoceanic
Mon 10:22:00 AM 31.6856 -126.4772 74° East 539 620 41,000  Level FlightAware Transoceanic
Mon 10:23:00 AM 31.7274 -126.3083 74° East 539 620 41,000  Level FlightAware Transoceanic
Mon 10:24:00 AM 31.7690 -126.1394 74° East 539 620 41,000  Level FlightAware Transoceanic
Mon 10:25:00 AM 31.8103 -125.9703 74° East 539 620 41,000  Level FlightAware Transoceanic
Mon 10:26:00 AM 31.8514 -125.8010 74° East 539 620 41,000  Level FlightAware Transoceanic
Mon 10:27:00 AM 31.8923 -125.6316 74° East 539 620 41,000  Level FlightAware Transoceanic
Mon 10:28:00 AM 31.9329 -125.4620 74° East 539 620 41,000  Level FlightAware Transoceanic
Mon 10:29:00 AM 31.9734 -125.2922 74° East 539 620 41,000  Level FlightAware Transoceanic
Mon 10:30:00 AM 32.0136 -125.1224 74° East 539 620 41,000  Level FlightAware Transoceanic
Mon 10:31:00 AM 32.0535 -124.9523 75° East 539 620 41,000  Level FlightAware Transoceanic
Mon 10:32:00 AM 32.0933 -124.7822 75° East 539 620 41,000  Level FlightAware Transoceanic
Mon 10:33:00 AM 32.1328 -124.6118 75° East 539 620 41,000  Level FlightAware Transoceanic
Mon 10:34:00 AM 32.1721 -124.4414 75° East 539 620 41,000  Level FlightAware Transoceanic
Mon 10:35:00 AM 32.2112 -124.2708 75° East 539 620 41,000  Level FlightAware Transoceanic
Mon 10:36:00 AM 32.2500 -124.1000 77° East 539 620 41,000  Level FlightAware Transoceanic
Mon 10:37:00 AM 32.2868 -123.9170 77° East 539 620 41,000  Level FlightAware Transoceanic
Mon 10:37:00 AM 32.2581 -123.9769 77° East 539 620 41,000  Level Los Angeles Center
Mon 10:38:00 AM 32.3233 -123.7339 77° East 539 620 41,000  Level FlightAware Transoceanic
Mon 10:38:01 AM 32.3033 -123.7689 76° East 541 623 41,000  Level Los Angeles Center
Mon 10:39:00 AM 32.3595 -123.5507 77° East 539 620 41,000  Level FlightAware Transoceanic
Mon 10:40:00 AM 32.3955 -123.3672 77° East 539 620 41,000  Level FlightAware Transoceanic
Mon 10:40:05 AM 32.3750 -123.4206 76° East 546 628 41,000  Level Los Angeles Center
Mon 10:41:00 AM 32.4312 -123.1837 77° East 539 620 41,000  Level FlightAware Transoceanic
Mon 10:41:06 AM 32.4197 -123.2472 73° East 553 636 41,000  Level Los Angeles Center
Mon 10:42:00 AM 32.4624 -123.0224 77° East  Level FlightAware Approximate
Mon 10:42:08 AM 32.4553 -123.1097 73° East 551 634 41,000  Level Los Angeles Center
Mon 10:44:11 AM 32.5556 -122.7244 73° East 554 638 41,000  Level Los Angeles Center
Mon 10:45:13 AM 32.6078 -122.5206 73° East 552 635 41,000  Level Los Angeles Center
Mon 10:46:15 AM 32.6519 -122.3469 73° East 552 635 41,000  Level Los Angeles Center
Mon 10:48:18 AM 32.7389 -121.9986 73° East 553 636 41,000  Level Los Angeles Center
Mon 10:50:00 AM 32.8111 -121.7295 72° East  Level FlightAware Approximate
Mon 10:51:23 AM 32.8686 -121.4817 72° East 547 629 41,000  Level Los Angeles Center
Mon 10:52:25 AM 32.9186 -121.2753 74° East 547 629 41,000  Level Los Angeles Center
Mon 10:53:26 AM 32.9606 -121.1044 74° East 544 626 41,000  Level Los Angeles Center
Mon 10:54:28 AM 33.0033 -120.9325 73° East 544 626 41,000  Level Los Angeles Center
Mon 10:55:30 AM 33.0442 -120.7592 74° East 545 627 41,000  Level Los Angeles Center
Mon 10:56:32 AM 33.0853 -120.5869 74° East 545 627 41,000  Level Los Angeles Center
Mon 10:57:33 AM 33.1261 -120.4142 74° East 545 627 41,000  Level Los Angeles Center
Mon 10:58:35 AM 33.1658 -120.2450 74° East 540 621 41,000  Level Los Angeles Center
Mon 10:59:37 AM 33.2136 -120.0381 75° East 544 626 41,000  Level Los Angeles Center
Mon 11:01:00 AM 33.2966 -119.8293 65° Northeast  Level Estimated
Mon 11:01:40 AM 33.2947 -119.6858 65° Northeast 548 631 41,000  Level Los Angeles Center
Mon 11:03:00 AM 33.3744 -119.4842 65° Northeast  Level Estimated
Mon 11:03:44 AM 33.3728 -119.3347 65° Northeast 548 631 41,000  Level Los Angeles Center
Mon 11:04:46 AM 33.4125 -119.1606 75° East 547 629 41,000  Level Los Angeles Center
Mon 11:05:47 AM 33.4592 -118.9478 75° East 553 636 41,000  Level Los Angeles Center
Mon 11:06:49 AM 33.4967 -118.7722 76° East 550 633 41,000  Level Los Angeles Center
Mon 11:07:51 AM 33.5350 -118.5975 75° East 549 632 41,000  Level Los Angeles Center
Mon 11:08:53 AM 33.5719 -118.4239 76° East 547 629 41,000  Level Los Angeles Center
Mon 11:09:55 AM 33.6158 -118.2197 75° East 544 626 41,000  Level Los Angeles Center
Mon 11:12:11 AM 33.6967 -117.8400 76° East 542 624 41,000  Level Los Angeles Center
Mon 11:13:13 AM 33.7333 -117.6661 76° East 540 621 41,000  Level Los Angeles Center
Mon 11:15:29 AM 33.8189 -117.2489 76° East 539 620 41,000  Level Los Angeles Center
Mon 11:16:31 AM 33.8542 -117.0758 76° East 536 617 41,000  Level Los Angeles Center
Mon 11:18:00 AM 33.8883 -116.8256 75° East  Level FlightAware Approximate
Mon 11:18:35 AM 33.9239 -116.7408 75° East 537 618 41,000  Level Los Angeles Center
Mon 11:19:37 AM 33.9575 -116.5653 77° East 536 617 41,000  Level Los Angeles Center
Mon 11:20:39 AM 33.9986 -116.3531 77° East 540 621 41,000  Level Los Angeles Center
Mon 11:21:41 AM 34.0339 -116.1717 77° East 552 635 41,000 -48 Level Los Angeles Center
Mon 11:22:43 AM 34.0683 -115.9878 77° East 559 643 40,900  Descending Los Angeles Center
Mon 11:23:45 AM 34.1019 -115.8089 77° East 552 635 41,000 48 Climbing Los Angeles Center
Mon 11:24:47 AM 34.1400 -115.6328 75° East 544 626 41,000  Level Los Angeles Center
Mon 11:25:49 AM 34.1872 -115.4264 74° East 533 613 41,000 -44 Level Los Angeles Center
Mon 11:27:03 AM 34.2261 -115.2506 75° East 540 621 40,900  Descending Los Angeles Center
Mon 11:28:06 AM 34.2708 -115.0383 76° East 543 625 41,000 32 Climbing Los Angeles Center
Mon 11:30:10 AM 34.3472 -114.6833 75° East 542 624 41,000  Level Los Angeles Center
Mon 11:31:12 AM 34.3756 -114.5442 76° East 542 624 41,000  Level Los Angeles Center
Mon 11:32:14 AM 34.4275 -114.2983 76° East 539 620 41,000  Level Los Angeles Center
Mon 11:34:18 AM 34.5019 -113.9358 76° East 549 632 41,000  Level Los Angeles Center
Mon 11:34:44 AM 34.5156 -113.8697 76° East 540 621 41,000  Level Albuquerque Center
Mon 11:35:46 AM 34.5531 -113.6914 76° East 544 626 41,000  Level Albuquerque Center
Mon 11:36:48 AM 34.6006 -113.5156 72° East 545 627 41,000  Level Albuquerque Center
Mon 11:37:50 AM 34.6528 -113.3469 69° East 541 623 41,000  Level Albuquerque Center
Mon 11:38:52 AM 34.7139 -113.1431 70° East 540 621 41,000  Level Albuquerque Center
Mon 11:39:54 AM 34.7636 -112.9764 70° East 533 613 41,000  Level Albuquerque Center
Mon 11:40:55 AM 34.8142 -112.8103 70° East 531 611 41,000  Level Albuquerque Center
Mon 11:41:57 AM 34.8642 -112.6456 70° East 529 609 41,000  Level Albuquerque Center
Mon 11:42:59 AM 34.9128 -112.4800 70° East 528 608 41,000  Level Albuquerque Center
Mon 11:45:16 AM 35.0194 -112.1139 70° East 527 606 41,000  Level Los Angeles Center
Mon 11:46:18 AM 35.0800 -111.9053 70° East 525 604 41,000  Level Los Angeles Center
Mon 11:47:07 AM 35.1164 -111.7786 71° East 530 610 41,000  Level Albuquerque Center
Mon 11:48:08 AM 35.1781 -111.6067 66° East 520 598 41,000  Level Albuquerque Center
Mon 11:49:10 AM 35.2514 -111.4522 60° Northeast 523 602 41,000  Level Albuquerque Center
Mon 11:50:12 AM 35.3322 -111.2806 60° Northeast 518 596 41,000  Level Albuquerque Center
Mon 11:51:14 AM 35.4006 -111.1306 61° Northeast 524 603 41,000  Level Albuquerque Center
Mon 11:54:19 AM 35.6306 -110.6336 60° Northeast 520 598 41,000  Level Albuquerque Center
Mon 11:55:21 AM 35.6981 -110.4869 60° Northeast 515 593 41,000  Level Albuquerque Center
Mon 11:56:22 AM 35.7664 -110.3364 61° Northeast 522 601 41,000  Level Albuquerque Center
Mon 11:58:26 AM 35.9142 -110.0122 61° Northeast 522 601 41,000  Level Albuquerque Center
Mon 12:00:30 PM 36.0569 -109.6875 61° Northeast 518 596 41,000  Level Albuquerque Center
Mon 12:00:49 PM 36.0800 -109.6386 60° Northeast 520 598 41,000  Level Denver Center
Mon 12:01:51 PM 36.1575 -109.4631 61° Northeast 519 597 41,000  Level Denver Center
Mon 12:03:35 PM 36.2681 -109.2114 61° Northeast 518 596 41,000  Level Albuquerque Center
Mon 12:03:55 PM 36.2906 -109.1606 61° Northeast 520 598 41,000  Level Denver Center
Mon 12:04:57 PM 36.3692 -108.9817 61° Northeast 523 602 41,000  Level Denver Center
Mon 12:05:59 PM 36.4364 -108.8267 62° Northeast 525 604 41,000  Level Denver Center
Mon 12:07:01 PM 36.5128 -108.6475 62° Northeast 524 603 41,000  Level Denver Center
Mon 12:08:03 PM 36.5789 -108.4944 62° Northeast 522 601 41,000  Level Denver Center
Mon 12:09:05 PM 36.6547 -108.3172 62° Northeast 519 597 41,000  Level Denver Center
Mon 12:11:00 PM 36.7682 -108.0086 60° Northeast  Level FlightAware Approximate
Mon 12:12:11 PM 36.8656 -107.8331 60° Northeast 520 598 41,000  Level Denver Center
Mon 12:13:14 PM 36.9319 -107.6819 61° Northeast 519 597 41,000  Level Denver Center
Mon 12:15:18 PM 37.0753 -107.3539 61° Northeast 517 595 41,000  Level Denver Center
Mon 12:16:20 PM 37.1542 -107.1753 61° Northeast 523 602 41,000  Level Denver Center
Mon 12:17:22 PM 37.2194 -107.0239 62° Northeast 517 595 41,000  Level Denver Center
Mon 12:18:24 PM 37.2964 -106.8453 62° Northeast 520 598 41,000  Level Denver Center
Mon 12:20:28 PM 37.4389 -106.5131 62° Northeast 519 597 41,000  Level Denver Center
Mon 12:21:30 PM 37.5039 -106.3603 62° Northeast 517 595 41,000  Level Denver Center
Mon 12:23:34 PM 37.6450 -106.0200 62° Northeast 518 596 41,000  Level Denver Center
Mon 12:24:36 PM 37.7086 -105.8661 62° Northeast 517 595 41,000  Level Denver Center
Mon 12:26:00 PM 37.7990 -105.6425 63° Northeast  Level FlightAware Approximate
Mon 12:26:40 PM 37.8475 -105.5328 63° Northeast 518 596 41,000  Level Denver Center
Mon 12:27:42 PM 37.9219 -105.3508 63° Northeast 521 600 41,000  Level Denver Center
Mon 12:28:44 PM 37.9853 -105.1953 63° Northeast 518 596 41,000  Level Denver Center
Mon 12:30:00 PM 38.0644 -104.9905 64° Northeast  Level FlightAware Approximate
Mon 12:32:03 PM 38.2075 -104.6458 72° East 518 596 41,000  Level Denver Center
Mon 12:34:07 PM 38.3278 -104.2953 66° East 520 598 41,000 32 Level Denver Center
Mon 12:35:09 PM 38.3692 -104.1247 73° East 524 603 41,100 194 Climbing Denver Center
Mon 12:36:11 PM 38.4117 -103.9558 72° East 520 598 41,400 387 Climbing Denver Center
Mon 12:37:00 PM 38.4326 -103.8198 72° East  Level FlightAware Approximate
Mon 12:37:13 PM 38.4592 -103.7619 73° East 515 593 41,900  Level Denver Center
Mon 12:38:15 PM 38.4992 -103.5967 73° East 510 587 42,300 387 Climbing Denver Center
Mon 12:39:17 PM 38.5461 -103.4014 73° East 514 592 42,700 387 Climbing Denver Center
Mon 12:40:19 PM 38.5886 -103.2278 73° East 518 596 43,100 387 Climbing Denver Center
Mon 12:41:21 PM 38.6308 -103.0528 73° East 515 593 43,500 387 Climbing Denver Center
Mon 12:42:23 PM 38.6719 -102.8769 73° East 513 590 43,900 392 Climbing Denver Center
Mon 12:44:00 PM 38.7348 -102.5944 74° East  Level FlightAware Approximate
Mon 12:44:40 PM 38.7617 -102.4833 74° East 510 587 44,800  Level Denver Center
Mon 12:46:00 PM 38.8115 -102.2493 75° East  Level FlightAware Approximate
Mon 12:48:48 PM 38.9247 -101.7692 76° East 502 578 45,000  Level Denver Center
Mon 12:49:50 PM 38.9672 -101.5772 74° East 500 575 45,000  Level Denver Center
Mon 12:50:52 PM 39.0044 -101.4114 74° East 502 578 45,000  Level Denver Center
Mon 12:51:54 PM 39.0461 -101.2233 74° East 508 585 45,000  Level Denver Center
Mon 12:53:00 PM 39.0823 -101.0216 74° East  Level FlightAware Approximate
Mon 12:53:00 PM 39.0814 -101.0276 77° East  Level FlightAware Approximate
Mon 12:53:58 PM 39.1250 -100.8572 77° East 512 589 45,000  Level Denver Center
Mon 12:54:00 PM 39.1158 -100.8440 76° East  Level FlightAware Approximate
Mon 12:55:00 PM 39.1608 -100.6919 74° East 506 582 45,000  Level Denver Center
Mon 12:57:00 PM 39.2278 -100.3363 76° East  Level FlightAware Approximate
Mon 12:59:17 PM 39.3353 -99.9358 72° East 488 562 45,000  Level Minneapolis Center
Mon 01:00:19 PM 39.3775 -99.7589 73° East 510 587 45,000  Level Minneapolis Center
Mon 01:01:21 PM 39.4211 -99.5867 72° East 509 586 45,000  Level Minneapolis Center
Mon 01:02:23 PM 39.4644 -99.4114 72° East 511 588 45,000  Level Minneapolis Center
Mon 01:02:39 PM 39.4725 -99.3742 74° East 509 586 45,000  Level Denver Center
Mon 01:04:00 PM 39.5215 -99.1095 72° East  Level FlightAware Approximate
Mon 01:04:43 PM 39.5650 -98.9911 72° East 510 587 45,000  Level Denver Center
Mon 01:05:45 PM 39.6069 -98.8175 73° East 507 583 45,000  Level Denver Center
Mon 01:06:47 PM 39.6492 -98.6436 72° East 508 585 45,000  Level Denver Center
Mon 01:07:33 PM 39.6825 -98.5056 73° East 508 585 45,000  Level Minneapolis Center
Mon 01:08:35 PM 39.7228 -98.3297 73° East 509 586 45,000  Level Minneapolis Center
Mon 01:09:38 PM 39.7719 -98.1203 73° East 507 583 45,000  Level Minneapolis Center
Mon 01:10:40 PM 39.8114 -97.9478 73° East 502 578 45,000  Level Minneapolis Center
Mon 01:12:00 PM 39.8653 -97.7131 73° East  Level FlightAware Approximate
Mon 01:12:44 PM 39.8908 -97.6053 73° East 496 571 45,000  Level Minneapolis Center
Mon 01:14:00 PM 39.9413 -97.3818 74° East  Level FlightAware Approximate
Mon 01:15:50 PM 40.0131 -97.0561 78° East 497 572 45,000  Level Minneapolis Center
Mon 01:17:54 PM 40.0903 -96.7125 74° East 495 570 45,000  Level Minneapolis Center
Mon 01:18:56 PM 40.1269 -96.5394 74° East 496 571 45,000  Level Minneapolis Center
Mon 01:20:11 PM 40.1725 -96.3325 74° East 496 571 45,000  Level Minneapolis Center
Mon 01:21:00 PM 40.2098 -96.1400 78° East  Level FlightAware Approximate
Mon 01:22:15 PM 40.2475 -95.9469 76° East 499 574 45,000  Level Minneapolis Center
Mon 01:23:17 PM 40.2806 -95.7686 76° East 504 580 45,000  Level Minneapolis Center
Mon 01:24:19 PM 40.3131 -95.5922 76° East 502 578 45,000  Level Minneapolis Center
Mon 01:25:21 PM 40.3444 -95.4158 77° East 501 577 45,000  Level Minneapolis Center
Mon 01:27:00 PM 40.3952 -95.1177 77° East  Level FlightAware Approximate
Mon 01:27:25 PM 40.4128 -95.0339 77° East 491 565 45,000  Level Minneapolis Center
Mon 01:29:01 PM 40.4597 -94.7608 77° East 494 568 45,000  Level Chicago Center
Mon 01:29:29 PM 40.4747 -94.6836 76° East 494 568 45,000  Level Minneapolis Center
Mon 01:30:31 PM 40.5031 -94.5189 77° East 493 567 45,000  Level Minneapolis Center
Mon 01:31:33 PM 40.5389 -94.3108 77° East 491 565 45,000  Level Minneapolis Center
Mon 01:33:09 PM 40.5858 -94.0278 78° East 497 572 45,000  Level Chicago Center
Mon 01:33:37 PM 40.5972 -93.9594 78° East 495 570 45,000  Level Minneapolis Center
Mon 01:34:40 PM 40.6250 -93.7819 78° East 497 572 45,000  Level Minneapolis Center
Mon 01:36:16 PM 40.6658 -93.4964 79° East 497 572 45,000  Level Chicago Center
Mon 01:36:44 PM 40.6808 -93.3914 79° East 497 572 45,000  Level Minneapolis Center
Mon 01:38:00 PM 40.7077 -93.1584 81° East  Level FlightAware Approximate
Mon 01:38:48 PM 40.7311 -93.0322 81° East 501 577 45,000  Level Minneapolis Center
Mon 01:39:50 PM 40.7611 -92.8544 77° East 500 575 45,000  Level Minneapolis Center
Mon 01:40:24 PM 40.7783 -92.7481 78° East 494 568 45,000  Level Chicago Center
Mon 01:43:30 PM 40.8658 -92.2206 77° East 492 566 45,000  Level Chicago Center
Mon 01:44:32 PM 40.8986 -92.0086 78° East 492 566 45,000  Level Chicago Center
Mon 01:45:35 PM 40.9261 -91.8336 78° East 490 564 45,000  Level Chicago Center
Mon 01:47:00 PM 40.9654 -91.5741 79° East  Level FlightAware Approximate
Mon 01:49:43 PM 41.0367 -91.1219 80° East 490 564 45,000  Level Chicago Center
Mon 01:51:00 PM 41.0515 -90.8826 85° East  Level Estimated
Mon 01:51:47 PM 41.0956 -90.7331 85° East 491 565 45,000  Level Chicago Center
Mon 01:53:00 PM 41.1084 -90.5059 86° East  Level Estimated
Mon 01:54:00 PM 41.1506 -90.2872 80° East  Level FlightAware Approximate
Mon 01:55:00 PM 41.1756 -90.1027 80° East  Level FlightAware Approximate
Mon 01:55:55 PM 41.1958 -90.0242 87° East 484 557 45,000  Level Chicago Center
Mon 01:56:58 PM 41.2217 -89.8475 79° East 483 556 45,000  Level Chicago Center
Mon 01:59:02 PM 41.2694 -89.4942 80° East 483 556 45,000  Level Chicago Center
Mon 02:00:00 PM 41.1739 -89.1970 86° East  Level Estimated
Mon 02:00:04 PM 41.3000 -89.2808 79° East 487 560 45,000  Level Chicago Center
Mon 02:01:00 PM 41.1820 -89.0098 87° East  Level Estimated
Mon 02:01:06 PM 41.3189 -89.1178 81° East 487 560 45,000  Level Chicago Center
Mon 02:03:00 PM 41.3492 -88.7629 80° East  Level FlightAware Approximate
Mon 02:04:12 PM 41.3892 -88.5528 80° East 486 559 45,000  Level Chicago Center
Mon 02:06:16 PM 41.4194 -88.2078 83° East 489 563 45,000  Level Chicago Center
Mon 02:08:00 PM 41.4599 -87.8864 80° East  Level FlightAware Approximate
Mon 02:10:23 PM 41.4836 -87.4644 82° East 487 560 45,000  Level Chicago Center
Mon 02:11:25 PM 41.5003 -87.2500 84° East 486 559 45,000  Level Chicago Center
Mon 02:12:27 PM 41.5147 -87.0708 84° East 487 560 45,000  Level Chicago Center
Mon 02:13:29 PM 41.5289 -86.8922 84° East 486 559 45,000  Level Chicago Center
Mon 02:14:31 PM 41.5422 -86.7003 85° East 484 557 45,000  Level Chicago Center
Mon 02:15:00 PM 41.6163 -86.5852 82° East  Level FlightAware Approximate
Mon 02:15:33 PM 41.5558 -86.5206 84° East 488 562 45,000  Level Chicago Center
Mon 02:17:00 PM 41.5950 -86.2525 79° East  Level FlightAware Approximate
Mon 02:17:37 PM 41.5814 -86.1614 79° East 488 562 45,000  Level Chicago Center
Mon 02:19:00 PM 41.6227 -85.9066 78° East  Level FlightAware Approximate
Mon 02:19:41 PM 41.6083 -85.7669 78° East 487 560 45,000  Level Chicago Center
Mon 02:21:00 PM 41.6553 -85.5267 75° East  Level FlightAware Approximate
Mon 02:21:45 PM 41.6303 -85.4211 75° East 483 556 44,900  Level Chicago Center
Mon 02:23:00 PM 41.6885 -85.1986 71° East  Level FlightAware Approximate
Mon 02:24:51 PM 41.6675 -84.8481 83° East 489 563 45,000  Level Chicago Center
Mon 02:25:53 PM 41.6781 -84.6683 85° East 487 560 45,000  Level Chicago Center
Mon 02:26:51 PM 41.6892 -84.4875 85° East 479 551 45,000  Level Cleveland Center
Mon 02:27:49 PM 41.6994 -84.3044 86° East 479 551 45,000  Level Cleveland Center
Mon 02:28:50 PM 41.7025 -84.1433 88° East 479 551 45,000  Level Cleveland Center
Mon 02:29:50 PM 41.7142 -83.9631 85° East 479 551 45,000  Level Cleveland Center
Mon 02:30:00 PM 41.8708 -83.8902 83° East  Level FlightAware Approximate
Mon 02:30:51 PM 41.7194 -83.7797 88° East 474 545 45,000  Level Cleveland Center
Mon 02:33:07 PM 41.7447 -83.3603 85° East 489 563 45,000  Level Chicago Center
Mon 02:33:50 PM 41.7458 -83.2300 89° East 484 557 45,000  Level Cleveland Center
Mon 02:34:50 PM 41.7542 -83.0494 86° East 489 563 45,000  Level Cleveland Center
Mon 02:37:00 PM 41.7332 -82.7106 95° East  Level Estimated
Mon 02:37:49 PM 41.7794 -82.4822 95° East 494 568 45,000  Level Cleveland Center
Mon 02:39:00 PM 41.7631 -82.2597 96° East  Level Estimated
Mon 02:42:50 PM 41.8119 -81.5694 97° East 494 568 45,000  Level Cleveland Center
Mon 02:44:00 PM 41.7912 -81.3506 97° East  Level Estimated
Mon 02:44:48 PM 41.8228 -81.2017 97° East 494 568 45,000  Level Cleveland Center
Mon 02:46:00 PM 41.6575 -80.9458 96° East  Level Estimated
Mon 02:46:00 PM 41.7993 -80.9770 98° East  Level Estimated
Mon 02:46:49 PM 41.8306 -80.8394 98° East 489 563 45,000  Level Cleveland Center
Mon 02:47:00 PM 41.6411 -80.7585 97° East  Level Estimated
Mon 02:47:49 PM 41.8350 -80.6528 88° East 489 563 45,000  Level Cleveland Center
Mon 02:48:00 PM 41.6245 -80.5713 97° East  Level Estimated
Mon 02:49:00 PM 41.8085 -80.4318 99° East  Level Estimated
Mon 02:50:49 PM 41.8464 -80.1261 99° East 484 557 45,000  Level Cleveland Center
Mon 02:51:50 PM 41.8497 -79.9447 89° East 484 557 45,000  Level Cleveland Center
Mon 02:53:48 PM 41.8556 -79.5853 89° East 476 548 45,000  Level Cleveland Center
Mon 02:54:48 PM 41.8581 -79.3956 89° East 484 557 45,000  Level Cleveland Center
Mon 02:55:49 PM 41.8603 -79.2169 89° East 484 557 45,000  Level Cleveland Center
Mon 02:56:00 PM 41.6432 -79.1287 99° East  Level Estimated
Mon 02:56:50 PM 41.8619 -79.0331 89° East 484 557 45,000  Level Cleveland Center
Mon 02:58:00 PM 41.8606 -78.8112 90° East  Level FlightAware Approximate
Mon 02:59:48 PM 41.8578 -78.5033 109° East 464 534 43,500  Level Cleveland Center
Mon 03:02:00 PM 41.8011 -78.0922 100° East  Level FlightAware Approximate
Mon 03:03:18 PM 41.7283 -77.9669 100° East 420 483 33,700  Level New York Center
Mon 03:05:00 PM 41.7699 -77.4963 109° East  Level FlightAware Approximate
Mon 03:05:00 PM 41.7205 -77.6445 92° East  Level FlightAware Approximate
Mon 03:06:18 PM 41.6956 -77.4939 114° Southeast 427 491 33,000  Level New York Center
Mon 03:07:19 PM 41.6881 -77.3292 93° East 437 503 31,600 -1,736 Descending New York Center
Mon 03:08:19 PM 41.6764 -77.1614 95° East 449 517 29,500 -2,186 Descending New York Center
Mon 03:09:17 PM 41.6392 -77.0022 107° East 443 510 27,300 -1,271 Descending New York Center
Mon 03:10:17 PM 41.5950 -76.8483 111° Southeast 443 510 27,000 -645 Descending New York Center
Mon 03:11:18 PM 41.5597 -76.7231 111° Southeast 443 510 26,000 -1,500 Descending New York Center
Mon 03:12:00 PM 41.4615 -76.3678 114° Southeast  Level FlightAware Approximate
Mon 03:12:17 PM 41.5139 -76.5528 110° East 443 510 24,000  Level New York Center
Mon 03:13:18 PM 41.4733 -76.4000 109° East 443 510 24,000  Level New York Center
Mon 03:14:18 PM 41.4364 -76.2528 108° East 432 497 24,000 -446 Level New York Center
Mon 03:15:19 PM 41.3944 -76.1222 113° Southeast 405 466 23,100 -1,210 Descending New York Center
Mon 03:16:17 PM 41.3583 -75.9978 111° Southeast 377 434 21,600 -1,412 Descending New York Center
Mon 03:18:00 PM 41.2748 -75.6997 124° Southeast  Level FlightAware Approximate
Mon 03:19:17 PM 41.2625 -75.6592 124° Southeast 321 369 17,500  Level New York Center
Mon 03:20:17 PM 41.2272 -75.5572 115° Southeast 304 350 15,700 -1,785 Descending New York Center
Mon 03:21:18 PM 41.1919 -75.4472 113° Southeast 295 339 13,900 -1,686 Descending New York Center
Mon 03:22:18 PM 41.1583 -75.3483 114° Southeast 295 339 12,300 -1,575 Descending New York Center
Mon 03:24:00 PM 41.0592 -75.0608 114° Southeast  Level FlightAware Approximate
Mon 03:25:18 PM 41.0667 -75.0725 114° Southeast 281 323 7,600  Level New York Center
Mon 03:26:19 PM 41.0328 -74.9714 114° Southeast 281 323 6,000 -1,041 Descending New York Center
Mon 03:27:19 PM 41.0025 -74.8842 115° Southeast 263 303 5,500 -712 Descending New York Center
Mon 03:28:17 PM 40.9883 -74.8119 105° East 226 260 4,600 -506 Descending New York Center
Mon 03:30:05 PM 41.0000 -74.6667 84° East 254 292 4,100 -135 Descending New York TRACON
Mon 03:31:59 PM 41.0167 -74.4833 83° East 261 300 4,100 -45 Level New York TRACON
Mon 03:32:19 PM 41.0083 -74.4503 108° East 256 295 4,000 -300 Descending New York Center
Mon 03:33:19 PM 41.0133 -74.3569 86° East 256 295 3,700 -540 Descending New York Center
Mon 03:33:59 PM 41.0167 -74.2833 87° East 251 289 3,100 -713 Descending New York TRACON
Mon 03:35:00 PM 41.0167 -74.2167 90° East 196 226 2,500 -496 Descending New York TRACON
Mon 03:36:00 PM 41.0167 -74.1500 90° East 186 214 2,100 -130 Descending New York TRACON
Mon 03:38:05 PM 40.9833 -74.0500 114° Southeast 178 205 2,100 -326 Level New York TRACON
Mon 03:39:59 PM 40.8833 -74.0500 180° South 145 167 800 -684 Descending New York TRACON
Mon 03:42:00 PM 40.8500 -74.0500 123° Southeast  Level FlightAware Approximate
Mon 03:49:00 PM 40.8501 -74.0608 123° Southeast  Level Estimated
Mon 03:50:00 PM 40.8501 -74.0608 123° Southeast  Level Estimated
Mon 03:51:00 PM 40.8501 -74.0608 123° Southeast  Level Estimated
Mon 03:52:00 PM 40.8501 -74.0608 123° Southeast  Level Estimated
Mon 03:53:00 PM 40.8501 -74.0608 123° Southeast  Level Estimated
Mon 03:54:00 PM 40.8501 -74.0608 123° Southeast  Level Estimated

Login

Don't have an account? Register now (free) for customized features, flight alerts, and more!